Time;durP1;ratioP1;P1;durP2;ratioP2;P2;SDS_P1;SDS_P2;PMS_P1;PMS_P2;Temp;Humidity;BMP_temperature;BMP_pressure;BME280_temperature;BME280_humidity;BME280_pressure;Samples;Min_cycle;Max_cycle;Signal;HPM_P1;HPM_P2
2022/01/28 00:02:39;;;;;;;;;;;;;;;18.53;57.75;101223.47;4969791;28;1382;-60
2022/01/28 00:05:13;;;;;;;;;;;;;;;18.58;57.53;101223.97;4970934;28;1540;-59
2022/01/28 00:07:39;;;;;;;;;;;;;;;18.61;57.08;101242.44;4964360;28;1266;-59
2022/01/28 00:10:06;;;;;;;;;;;;;;;18.45;57.84;101220.53;4961681;28;1973;-60
2022/01/28 00:12:34;;;;;;;;;;;;;;;18.42;57.67;101202.00;4959748;28;1346;-60
2022/01/28 00:15:07;;;;;;;;;;;;;;;18.38;57.78;101216.63;4971366;28;1411;-60
2022/01/28 00:37:10;;;;;;;;;;;;;;;17.93;57.57;101181.78;4962892;28;992;-59
2022/01/28 00:39:36;;;;;;;;;;;;;;;17.89;58.74;101167.78;4965301;28;1906;-59
2022/01/28 00:42:03;;;;;;;;;;;;;;;17.85;58.54;101171.66;4965187;28;1512;-60
2022/01/28 00:44:30;;;;;;;;;;;;;;;17.86;58.71;101166.16;4971583;28;1609;-60
2022/01/28 00:46:58;;;;;;;;;;;;;;;17.79;58.53;101159.56;4967175;28;1520;-59
2022/01/28 00:49:24;;;;;;;;;;;;;;;17.81;57.94;101162.97;4968310;28;1903;-60
2022/01/28 00:51:51;;;;;;;;;;;;;;;17.78;58.57;101155.19;4968989;28;1874;-59
2022/01/28 00:54:18;;;;;;;;;;;;;;;17.76;58.27;101157.13;4970305;28;1489;-60
2022/01/28 00:56:45;;;;;;;;;;;;;;;17.69;58.63;101166.59;4962892;28;1508;-60
2022/01/28 00:59:11;;;;;;;;;;;;;;;17.66;58.08;101138.25;4969079;28;1588;-60
2022/01/28 01:01:38;;;;;;;;;;;;;;;17.67;58.06;101149.81;4966372;28;1389;-60
2022/01/28 01:04:06;;;;;;;;;;;;;;;17.65;57.87;101138.38;4965447;28;1568;-60
2022/01/28 01:06:33;;;;;;;;;;;;;;;17.63;58.63;101129.63;4969403;28;1329;-60
2022/01/28 01:09:00;;;;;;;;;;;;;;;17.59;58.63;101117.47;4972409;28;1970;-59
2022/01/28 01:11:27;;;;;;;;;;;;;;;17.60;58.14;101124.50;4967621;28;1715;-59
2022/01/28 01:13:54;;;;;;;;;;;;;;;17.55;58.18;101100.81;4962824;28;1520;-60
2022/01/28 01:16:28;;;;;;;;;;;;;;;17.56;58.67;101102.50;4969499;28;980;-59
2022/01/28 01:19:11;;;;;;;;;;;;;;;17.54;58.24;101100.91;4970777;28;1770;-60
2022/01/28 01:21:41;;;;;;;;;;;;;;;17.54;57.58;101092.88;4968945;28;1779;-60
2022/01/28 01:24:09;;;;;;;;;;;;;;;17.56;57.38;101096.31;4966565;28;1581;-60
2022/01/28 01:26:38;;;;;;;;;;;;;;;17.51;57.97;101088.63;4966510;28;1581;-60
2022/01/28 01:29:08;;;;;;;;;;;;;;;17.52;58.04;101089.47;4966410;28;1914;-60
2022/01/28 01:31:36;;;;;;;;;;;;;;;17.52;58.57;101081.47;4964376;28;997;-60
2022/01/28 01:34:10;;;;;;;;;;;;;;;17.49;59.06;101080.72;4968413;28;1724;-59
2022/01/28 01:36:36;;;;;;;;;;;;;;;17.53;58.56;101069.78;4971585;28;1766;-60
2022/01/28 01:39:04;;;;;;;;;;;;;;;17.52;58.48;101054.72;4966281;28;1571;-59
2022/01/28 01:41:35;;;;;;;;;;;;;;;17.53;58.55;101059.09;4970539;28;1589;-60
2022/01/28 01:44:06;;;;;;;;;;;;;;;17.60;58.29;101057.66;4965598;28;1424;-60
2022/01/28 01:46:46;;;;;;;;;;;;;;;17.60;58.13;101057.66;4971800;28;1480;-59
2022/01/28 01:52:03;;;;;;;;;;;;;;;17.61;58.13;101048.69;4965492;28;1781;-59
2022/01/28 01:54:34;;;;;;;;;;;;;;;17.55;58.23;101019.72;4969005;28;1652;-60
2022/01/28 01:57:01;;;;;;;;;;;;;;;17.59;58.35;101023.88;4961999;28;1593;-59
2022/01/28 01:59:27;;;;;;;;;;;;;;;17.58;58.20;101025.69;4966007;28;1532;-60
2022/01/28 02:01:54;;;;;;;;;;;;;;;17.52;58.50;101012.78;4974008;28;1688;-59
2022/01/28 02:04:20;;;;;;;;;;;;;;;17.53;58.46;101027.88;4960369;28;1871;-60
2022/01/28 02:06:47;;;;;;;;;;;;;;;17.57;58.38;101009.78;4961992;28;1688;-60
2022/01/28 02:09:14;;;;;;;;;;;;;;;17.52;58.39;101009.28;4958722;28;2032;-59
2022/01/28 02:11:42;;;;;;;;;;;;;;;17.62;57.98;101011.09;4969046;28;1387;-59
2022/01/28 02:14:09;;;;;;;;;;;;;;;17.93;57.80;101003.34;4967542;28;1592;-59
2022/01/28 02:16:35;;;;;;;;;;;;;;;18.20;56.97;100997.59;4960894;28;1077;-59
2022/01/28 02:19:02;;;;;;;;;;;;;;;18.37;56.32;100990.88;4967828;28;1708;-59
2022/01/28 02:21:33;;;;;;;;;;;;;;;18.45;56.16;100987.56;4963346;28;1593;-59
2022/01/28 02:24:02;;;;;;;;;;;;;;;18.51;55.88;100986.22;4965743;28;1450;-60
2022/01/28 02:26:30;;;;;;;;;;;;;;;18.51;56.03;100987.06;4965665;28;1601;-59
2022/01/28 02:28:58;;;;;;;;;;;;;;;18.48;56.61;100971.22;4965762;28;1906;-59
2022/01/28 02:31:27;;;;;;;;;;;;;;;18.49;56.70;100975.63;4956763;29;976;-60
2022/01/28 02:33:56;;;;;;;;;;;;;;;18.46;55.96;100966.03;4963760;28;1516;-59
2022/01/28 02:36:25;;;;;;;;;;;;;;;18.44;56.37;100980.50;4970087;28;1666;-59
2022/01/28 02:38:52;;;;;;;;;;;;;;;18.42;56.74;100979.78;4963863;28;1286;-59
2022/01/28 02:41:19;;;;;;;;;;;;;;;18.36;56.24;100985.63;4967688;28;1686;-59
2022/01/28 02:44:00;;;;;;;;;;;;;;;18.31;56.47;100977.16;4969521;28;1589;-59
2022/01/28 02:46:29;;;;;;;;;;;;;;;18.25;56.09;100976.66;4961774;28;975;-59
2022/01/28 02:49:03;;;;;;;;;;;;;;;18.24;56.21;100968.75;4966934;28;1915;-59
2022/01/28 02:51:29;;;;;;;;;;;;;;;18.14;56.58;100959.78;4961744;28;1511;-59
2022/01/28 02:54:00;;;;;;;;;;;;;;;18.11;56.54;100960.88;4968559;28;1585;-60
2022/01/28 02:56:37;;;;;;;;;;;;;;;18.06;56.94;100965.75;4963997;28;1433;-59
2022/01/28 02:59:04;;;;;;;;;;;;;;;18.03;56.68;100971.38;4965679;28;1392;-60
2022/01/28 03:01:31;;;;;;;;;;;;;;;18.04;56.69;100989.94;4962410;28;1471;-59
2022/01/28 03:04:00;;;;;;;;;;;;;;;17.96;56.81;100959.44;4964523;28;1759;-60
2022/01/28 03:06:27;;;;;;;;;;;;;;;17.97;56.01;100966.50;4971312;28;1493;-60
2022/01/28 03:08:57;;;;;;;;;;;;;;;17.91;57.12;100956.31;4969121;28;1972;-60
2022/01/28 03:11:43;;;;;;;;;;;;;;;17.85;57.28;100973.69;4969311;28;1381;-60
2022/01/28 03:14:32;;;;;;;;;;;;;;;17.77;57.19;100954.72;4972878;28;1440;-60
2022/01/28 03:17:07;;;;;;;;;;;;;;;17.72;57.37;100951.53;4968413;28;1569;-60
2022/01/28 03:19:45;;;;;;;;;;;;;;;17.73;57.10;100950.56;4970217;28;1029;-60
2022/01/28 03:22:11;;;;;;;;;;;;;;;17.69;57.08;100958.00;4965110;28;1428;-60
2022/01/28 03:24:40;;;;;;;;;;;;;;;17.65;56.89;100929.78;4969183;28;1344;-60
2022/01/28 03:27:14;;;;;;;;;;;;;;;17.62;57.16;100940.72;4974200;28;1521;-59
2022/01/28 03:29:40;;;;;;;;;;;;;;;17.65;57.25;100937.81;4968562;28;1970;-60
2022/01/28 03:32:07;;;;;;;;;;;;;;;17.68;57.22;100930.38;4965369;28;1643;-60
2022/01/28 03:34:33;;;;;;;;;;;;;;;17.69;57.13;100931.25;4969869;28;1088;-60
2022/01/28 03:37:00;;;;;;;;;;;;;;;17.73;57.48;100932.69;4967063;28;1527;-60
2022/01/28 03:39:26;;;;;;;;;;;;;;;17.75;57.08;100929.91;4972295;28;1711;-60
2022/01/28 03:41:53;;;;;;;;;;;;;;;17.73;57.17;100926.50;4969221;28;1774;-60
2022/01/28 03:44:21;;;;;;;;;;;;;;;17.76;57.12;100927.09;4968349;28;1624;-60
2022/01/28 03:46:47;;;;;;;;;;;;;;;17.76;56.82;100927.09;4961826;28;1025;-59
2022/01/28 03:49:14;;;;;;;;;;;;;;;17.77;56.80;100927.97;4965952;28;1967;-60
2022/01/28 03:51:40;;;;;;;;;;;;;;;17.77;56.96;100939.50;4972692;28;1778;-60
2022/01/28 03:54:07;;;;;;;;;;;;;;;17.72;56.87;100911.41;4961778;28;1526;-60
2022/01/28 03:56:33;;;;;;;;;;;;;;;17.76;55.91;100923.56;4971039;28;1362;-60
2022/01/28 03:59:00;;;;;;;;;;;;;;;17.74;56.61;100912.97;4967956;28;1596;-60
2022/01/28 04:01:32;;;;;;;;;;;;;;;17.74;56.56;100917.50;4967183;28;1968;-60
2022/01/28 04:04:43;;;;;;;;;;;;;;;17.73;56.30;100913.13;4964300;28;1339;-60
2022/01/28 04:12:25;;;;;;;;;;;;;;;17.70;56.20;100936.44;4969754;28;768;-60
2022/01/28 04:15:06;;;;;;;;;;;;;;;17.70;55.91;100932.94;4969788;28;1724;-59
2022/01/28 04:17:35;;;;;;;;;;;;;;;17.65;56.07;100905.72;4960168;28;1718;-60
2022/01/28 04:20:01;;;;;;;;;;;;;;;17.68;56.05;100908.13;4966705;28;1608;-60
2022/01/28 04:22:28;;;;;;;;;;;;;;;17.64;55.67;100898.66;4969518;28;1104;-60
2022/01/28 04:24:55;;;;;;;;;;;;;;;17.65;56.07;100908.41;4969693;28;1645;-59
2022/01/28 04:27:21;;;;;;;;;;;;;;;17.64;56.19;100901.34;4969473;28;1787;-60
2022/01/28 04:29:48;;;;;;;;;;;;;;;17.62;55.73;100898.78;4968610;28;1903;-59
2022/01/28 04:32:14;;;;;;;;;;;;;;;17.67;56.26;100911.78;4973699;28;1612;-60
2022/01/28 04:34:42;;;;;;;;;;;;;;;17.64;55.61;100902.16;4968687;28;1517;-60
2022/01/28 04:37:18;;;;;;;;;;;;;;;17.65;55.94;100887.84;4968105;28;1108;-60
2022/01/28 04:39:50;;;;;;;;;;;;;;;17.67;55.54;100891.25;4969167;28;2120;-60
2022/01/28 04:42:30;;;;;;;;;;;;;;;17.66;55.15;100904.72;4969066;28;1783;-60
2022/01/28 04:45:09;;;;;;;;;;;;;;;17.63;55.68;100883.59;4965193;28;1600;-59
2022/01/28 04:47:43;;;;;;;;;;;;;;;17.61;55.89;100880.19;4974432;28;1659;-60
2022/01/28 04:50:19;;;;;;;;;;;;;;;17.65;56.43;100881.66;4969122;28;1973;-60
2022/01/28 04:53:04;;;;;;;;;;;;;;;17.65;55.73;100897.69;4967635;28;1302;-60
2022/01/28 04:55:46;;;;;;;;;;;;;;;17.61;55.78;100886.38;4959463;28;1448;-60
2022/01/28 04:58:29;;;;;;;;;;;;;;;17.61;56.01;100897.09;4971818;28;1540;-59
2022/01/28 05:01:13;;;;;;;;;;;;;;;17.61;55.98;100891.75;4966070;28;1207;-60
2022/01/28 05:03:53;;;;;;;;;;;;;;;17.56;55.16;100888.56;4965792;28;1719;-60
2022/01/28 05:12:22;;;;;;;;;;;;;;;17.56;56.32;100887.72;4966729;28;1569;-60
2022/01/28 05:23:30;;;;;;;;;;;;;;;17.50;56.24;100889.91;4966974;28;1392;-60
2022/01/28 05:28:46;;;;;;;;;;;;;;;17.46;56.29;100875.09;4957406;28;2287;-60
2022/01/28 05:31:12;;;;;;;;;;;;;;;17.47;55.92;100890.16;4968183;28;1978;-60
2022/01/28 05:33:39;;;;;;;;;;;;;;;17.46;56.47;100882.25;4968174;28;1591;-60
2022/01/28 05:36:05;;;;;;;;;;;;;;;17.49;56.30;100888.22;4966954;28;1447;-60
2022/01/28 05:38:33;;;;;;;;;;;;;;;17.52;56.34;100905.00;4965842;28;1648;-60
2022/01/28 05:41:00;;;;;;;;;;;;;;;17.48;56.42;100899.88;4966184;28;1581;-60
2022/01/28 05:43:26;;;;;;;;;;;;;;;17.50;56.67;100911.28;4967931;28;1644;-60
2022/01/28 05:45:54;;;;;;;;;;;;;;;17.45;56.55;100904.63;4965778;28;1063;-60
2022/01/28 05:48:20;;;;;;;;;;;;;;;17.49;56.47;100900.75;4962532;28;1587;-60
2022/01/28 05:50:47;;;;;;;;;;;;;;;17.46;56.48;100896.47;4964462;28;1903;-60
2022/01/28 05:53:14;;;;;;;;;;;;;;;17.45;56.42;100904.63;4968523;28;1385;-60
2022/01/28 05:55:42;;;;;;;;;;;;;;;17.44;56.57;100911.78;4963996;28;1992;-60
2022/01/28 05:58:09;;;;;;;;;;;;;;;17.46;56.67;100912.50;4972028;28;1535;-60
2022/01/28 06:00:35;;;;;;;;;;;;;;;17.49;56.50;100909.63;4965074;28;1195;-60
2022/01/28 06:03:02;;;;;;;;;;;;;;;17.49;56.28;100922.97;4962100;28;1432;-60
2022/01/28 06:05:30;;;;;;;;;;;;;;;17.46;56.34;100909.84;4965142;28;1432;-60
2022/01/28 06:07:57;;;;;;;;;;;;;;;17.53;56.77;100917.38;4966399;28;1474;-60
2022/01/28 06:10:23;;;;;;;;;;;;;;;17.68;55.25;100933.03;4969645;28;1978;-59
2022/01/28 06:12:51;;;;;;;;;;;;;;;18.17;54.65;100917.56;4970685;28;1394;-59
2022/01/28 06:15:18;;;;;;;;;;;;;;;18.71;54.77;100906.88;4972381;28;1354;-60
2022/01/28 06:17:45;;;;;;;;;;;;;;;18.90;53.87;100904.34;4971510;28;1431;-59
2022/01/28 06:20:16;;;;;;;;;;;;;;;18.99;52.97;100900.88;4967905;28;1297;-59
2022/01/28 06:22:43;;;;;;;;;;;;;;;18.98;54.24;100899.19;4968485;28;1418;-59
2022/01/28 06:25:11;;;;;;;;;;;;;;;18.99;54.01;100900.03;4972623;28;1121;-59
2022/01/28 06:27:38;;;;;;;;;;;;;;;19.02;53.13;100894.38;4971969;28;1656;-60
2022/01/28 06:30:06;;;;;;;;;;;;;;;19.11;53.74;100898.13;4967798;28;1907;-59
2022/01/28 06:32:33;;;;;;;;;;;;;;;19.01;54.04;100904.25;4964453;28;1331;-59
2022/01/28 06:35:01;;;;;;;;;;;;;;;18.96;54.42;100902.97;4969946;28;1321;-59
2022/01/28 06:37:28;;;;;;;;;;;;;;;19.14;53.42;100898.72;4966680;28;1937;-59
2022/01/28 06:39:54;;;;;;;;;;;;;;;19.19;53.13;100896.47;4971436;28;1399;-57
2022/01/28 06:42:21;;;;;;;;;;;;;;;19.24;54.89;100899.59;4970799;28;1147;-58
2022/01/28 06:44:47;;;;;;;;;;;;;;;19.23;53.18;100913.13;4967724;28;1362;-60
2022/01/28 06:47:15;;;;;;;;;;;;;;;19.07;53.64;100903.72;4977654;28;1198;-60
2022/01/28 06:49:42;;;;;;;;;;;;;;;19.04;54.38;100904.00;4968730;28;1979;-60
2022/01/28 06:52:08;;;;;;;;;;;;;;;18.98;54.46;100892.94;4973997;28;1276;-60
2022/01/28 06:54:35;;;;;;;;;;;;;;;18.97;53.90;100902.84;4965960;28;1542;-60
2022/01/28 06:57:02;;;;;;;;;;;;;;;18.93;54.08;100889.84;4971639;28;1809;-60
2022/01/28 06:59:28;;;;;;;;;;;;;;;18.85;54.74;100899.38;4968264;28;1362;-60
2022/01/28 07:01:55;;;;;;;;;;;;;;;18.85;54.62;100895.84;4976443;28;1491;-60
2022/01/28 07:04:23;;;;;;;;;;;;;;;18.79;54.93;100899.03;4967844;28;978;-60
2022/01/28 07:06:50;;;;;;;;;;;;;;;18.76;54.36;100893.91;4966877;28;1495;-60
2022/01/28 07:09:17;;;;;;;;;;;;;;;18.87;55.12;100901.94;4973314;28;1802;-58
2022/01/28 07:11:44;;;;;;;;;;;;;;;18.94;55.62;100912.97;4966411;28;1902;-60
2022/01/28 07:14:10;;;;;;;;;;;;;;;18.90;55.56;100928.47;4974207;28;1594;-62
2022/01/28 07:16:37;;;;;;;;;;;;;;;18.86;55.37;100921.66;4978545;28;1292;-59
2022/01/28 07:19:04;;;;;;;;;;;;;;;18.84;55.83;100923.59;4975111;28;1581;-58
2022/01/28 07:21:32;;;;;;;;;;;;;;;18.86;55.96;100927.00;4966229;28;1719;-60
2022/01/28 07:23:58;;;;;;;;;;;;;;;18.38;53.55;100927.44;4976759;28;1577;-59
2022/01/28 07:26:25;;;;;;;;;;;;;;;18.33;54.37;100918.97;4972393;28;1706;-57
2022/01/28 07:28:52;;;;;;;;;;;;;;;17.58;46.78;100933.91;4974416;28;1527;-60
2022/01/28 07:31:19;;;;;;;;;;;;;;;17.82;50.38;100910.53;4972432;28;1914;-60
2022/01/28 07:33:46;;;;;;;;;;;;;;;18.78;47.78;100903.53;4977262;28;1625;-59
2022/01/28 07:36:12;;;;;;;;;;;;;;;19.21;47.86;100909.72;4972563;28;1561;-59
2022/01/28 07:38:40;;;;;;;;;;;;;;;19.27;47.68;100904.69;4972763;28;1504;-73
2022/01/28 07:41:07;;;;;;;;;;;;;;;19.22;49.22;100912.28;4971084;28;1477;-59
2022/01/28 07:43:37;;;;;;;;;;;;;;;19.16;49.37;100909.28;4975221;28;1518;-59
2022/01/28 07:46:04;;;;;;;;;;;;;;;19.21;48.64;100901.69;4971383;28;1471;-59
2022/01/28 07:48:30;;;;;;;;;;;;;;;19.20;49.69;100891.94;4968660;28;1531;-60
2022/01/28 07:50:57;;;;;;;;;;;;;;;19.21;49.27;100894.50;4973359;28;1906;-67
2022/01/28 07:53:23;;;;;;;;;;;;;;;19.11;49.44;100887.41;4968503;28;1285;-59
2022/01/28 07:55:51;;;;;;;;;;;;;;;19.00;50.54;100899.91;4971710;28;1567;-64
2022/01/28 07:58:18;;;;;;;;;;;;;;;18.93;50.46;100889.84;4970833;28;1585;-63
2022/01/28 08:00:44;;;;;;;;;;;;;;;18.87;50.95;100918.84;4973788;28;1462;-61
2022/01/28 08:03:12;;;;;;;;;;;;;;;18.87;50.79;100924.22;4972018;28;1688;-60
2022/01/28 08:05:39;;;;;;;;;;;;;;;18.78;51.88;100918.75;4971442;28;1350;-60
2022/01/28 08:08:08;;;;;;;;;;;;;;;18.71;51.55;100929.13;4969403;28;1674;-61
2022/01/28 08:10:35;;;;;;;;;;;;;;;18.93;52.90;100930.03;4970199;28;1903;-65
2022/01/28 08:13:03;;;;;;;;;;;;;;;18.87;53.72;100934.09;4974001;28;1460;-69
2022/01/28 08:15:30;;;;;;;;;;;;;;;19.03;53.64;100934.47;4973999;28;1537;-60
2022/01/28 08:17:57;;;;;;;;;;;;;;;18.95;54.25;100920.03;4974088;28;1567;-60
2022/01/28 08:20:23;;;;;;;;;;;;;;;18.82;54.68;100947.88;4975744;28;1495;-67
2022/01/28 08:22:50;;;;;;;;;;;;;;;18.72;54.21;100919.25;4973559;28;1404;-61
2022/01/28 08:25:18;;;;;;;;;;;;;;;18.72;54.54;100916.59;4975104;28;1393;-66
2022/01/28 08:27:45;;;;;;;;;;;;;;;18.74;55.04;100915.50;4970211;28;1377;-60
2022/01/28 08:30:13;;;;;;;;;;;;;;;18.74;55.48;100906.59;4970225;28;1712;-60
2022/01/28 08:32:40;;;;;;;;;;;;;;;18.78;56.22;100884.78;4973423;28;1518;-62
2022/01/28 08:35:07;;;;;;;;;;;;;;;18.82;56.01;100893.41;4972355;28;1396;-64
2022/01/28 08:37:34;;;;;;;;;;;;;;;18.83;55.99;100895.97;4971252;28;1471;-61
2022/01/28 08:40:01;;;;;;;;;;;;;;;18.80;57.09;100901.63;4976242;28;1448;-65
2022/01/28 08:42:27;;;;;;;;;;;;;;;18.87;57.51;100891.22;4970292;28;1344;-62
2022/01/28 08:44:54;;;;;;;;;;;;;;;19.42;56.48;100897.13;4965924;28;1475;-64
2022/01/28 08:47:22;;;;;;;;;;;;;;;19.32;57.30;100895.38;4975650;28;1624;-64
2022/01/28 08:49:48;;;;;;;;;;;;;;;19.20;57.78;100902.66;4971876;28;1442;-62
2022/01/28 08:52:15;;;;;;;;;;;;;;;19.07;57.88;100897.53;4965896;28;1911;-71
2022/01/28 08:54:42;;;;;;;;;;;;;;;19.07;56.29;100886.81;4974270;28;1496;-60
2022/01/28 08:57:09;;;;;;;;;;;;;;;19.22;56.06;100890.84;4973192;28;1523;-64
2022/01/28 08:59:35;;;;;;;;;;;;;;;19.17;56.71;100897.59;4972945;28;1783;-72
2022/01/28 09:02:02;;;;;;;;;;;;;;;19.20;56.64;100883.91;4975736;28;1517;-60
2022/01/28 09:04:30;;;;;;;;;;;;;;;19.21;57.66;100862.31;4968787;28;1567;-75
2022/01/28 09:06:57;;;;;;;;;;;;;;;19.30;58.11;100870.53;4972860;28;1708;-60
2022/01/28 09:09:23;;;;;;;;;;;;;;;19.31;56.81;100873.09;4969589;28;1417;-69
2022/01/28 09:11:54;;;;;;;;;;;;;;;19.26;57.64;100875.34;4969467;28;1910;-64
2022/01/28 09:14:21;;;;;;;;;;;;;;;19.41;56.77;100878.50;4971003;28;1404;-63
2022/01/28 09:16:48;;;;;;;;;;;;;;;19.34;56.37;100875.50;4970060;28;1346;-60
2022/01/28 09:19:15;;;;;;;;;;;;;;;19.32;56.72;100890.88;4971258;28;1507;-58
2022/01/28 09:21:43;;;;;;;;;;;;;;;19.36;55.81;100908.41;4971871;28;1392;-61
2022/01/28 09:24:09;;;;;;;;;;;;;;;19.42;55.35;100915.91;4973686;28;1448;-59
2022/01/28 09:26:36;;;;;;;;;;;;;;;19.43;56.49;100914.91;4973969;28;1519;-59
2022/01/28 09:29:03;;;;;;;;;;;;;;;19.42;57.05;100910.53;4970473;28;1375;-58
2022/01/28 09:31:30;;;;;;;;;;;;;;;19.53;57.42;100920.31;4976029;28;1902;-60
2022/01/28 09:33:56;;;;;;;;;;;;;;;19.54;56.83;100916.66;4965590;28;1599;-58
2022/01/28 09:36:23;;;;;;;;;;;;;;;19.57;56.95;100948.56;4967254;28;1420;-66
2022/01/28 09:38:51;;;;;;;;;;;;;;;19.60;56.58;100926.00;4974825;28;1311;-59
2022/01/28 09:41:18;;;;;;;;;;;;;;;19.68;57.12;100929.69;4969396;28;1455;-60
2022/01/28 09:43:45;;;;;;;;;;;;;;;19.74;56.20;100906.03;4973245;28;1314;-61
2022/01/28 09:46:13;;;;;;;;;;;;;;;19.78;57.03;100915.50;4973264;28;1166;-59
2022/01/28 09:48:39;;;;;;;;;;;;;;;19.95;55.74;100897.88;4970559;28;1727;-62
2022/01/28 09:51:06;;;;;;;;;;;;;;;19.93;57.22;100910.59;4971166;28;1934;-61
2022/01/28 09:53:33;;;;;;;;;;;;;;;19.89;57.96;100914.53;4969780;28;1447;-61
2022/01/28 09:56:02;;;;;;;;;;;;;;;20.00;57.13;100928.69;4970798;28;1615;-62
2022/01/28 09:58:28;;;;;;;;;;;;;;;20.00;55.85;100904.53;4971104;28;1523;-57
2022/01/28 10:00:55;;;;;;;;;;;;;;;19.91;55.81;100897.31;4967608;28;1453;-58
2022/01/28 10:03:21;;;;;;;;;;;;;;;19.95;55.57;100897.88;4966463;28;1961;-60
2022/01/28 10:05:50;;;;;;;;;;;;;;;19.99;56.70;100923.44;4973441;28;1631;-64
2022/01/28 10:08:18;;;;;;;;;;;;;;;19.96;55.78;100907.63;4970219;28;1573;-58
2022/01/28 10:10:46;;;;;;;;;;;;;;;19.85;56.58;100903.22;4959573;28;1911;-63
2022/01/28 10:13:17;;;;;;;;;;;;;;;20.20;55.68;100904.56;4967919;28;1605;-64
2022/01/28 10:15:57;;;;;;;;;;;;;;;20.02;56.11;100910.59;4969370;28;1314;-59
2022/01/28 10:18:35;;;;;;;;;;;;;;;19.88;56.59;100929.78;4968945;28;1509;-57
2022/01/28 10:21:02;;;;;;;;;;;;;;;19.79;56.36;100925.25;4963165;28;1476;-59
2022/01/28 10:23:28;;;;;;;;;;;;;;;19.82;55.95;100933.88;4969936;28;1822;-59
2022/01/28 10:26:01;;;;;;;;;;;;;;;19.82;55.66;100925.81;4968627;28;1338;-59
2022/01/28 10:28:29;;;;;;;;;;;;;;;19.83;55.41;100915.94;4966533;28;1185;-59
2022/01/28 10:30:55;;;;;;;;;;;;;;;19.83;56.04;100927.50;4968472;28;1910;-57
2022/01/28 10:33:24;;;;;;;;;;;;;;;19.84;56.00;100934.59;4966903;28;1802;-60
2022/01/28 10:35:52;;;;;;;;;;;;;;;19.82;56.03;100931.19;4962832;28;1251;-56
2022/01/28 10:38:28;;;;;;;;;;;;;;;19.82;55.54;100904.34;4964666;28;1648;-57
2022/01/28 10:41:12;;;;;;;;;;;;;;;19.89;55.11;100919.91;4967775;28;1485;-56
2022/01/28 10:43:44;;;;;;;;;;;;;;;19.89;54.94;100920.75;4964900;28;1488;-57
2022/01/28 10:46:10;;;;;;;;;;;;;;;19.86;55.77;100905.78;4971984;28;1377;-56
2022/01/28 10:48:49;;;;;;;;;;;;;;;19.91;55.33;100905.34;4966122;28;1631;-59
2022/01/28 10:51:16;;;;;;;;;;;;;;;19.97;54.22;100893.22;4969322;28;1918;-59
2022/01/28 10:53:42;;;;;;;;;;;;;;;19.98;55.11;100887.72;4965997;28;1616;-59
2022/01/28 10:56:11;;;;;;;;;;;;;;;19.85;56.03;100885.28;4967754;28;1880;-56
2022/01/28 10:58:39;;;;;;;;;;;;;;;19.83;55.66;100879.19;4962474;28;1624;-57
2022/01/28 11:01:12;;;;;;;;;;;;;;;19.85;55.28;100863.81;4972053;28;1484;-59
2022/01/28 11:03:40;;;;;;;;;;;;;;;19.82;56.36;100872.16;4970964;28;1754;-56
2022/01/28 11:06:07;;;;;;;;;;;;;;;19.81;55.39;100859.72;4970652;28;1452;-59
2022/01/28 11:08:34;;;;;;;;;;;;;;;19.66;55.63;100855.72;4969356;28;1495;-56
2022/01/28 11:11:01;;;;;;;;;;;;;;;19.67;55.92;100858.22;4970351;28;1432;-59
2022/01/28 11:13:28;;;;;;;;;;;;;;;19.59;56.73;100859.91;4967006;28;1930;-59
2022/01/28 11:15:55;;;;;;;;;;;;;;;19.53;55.60;100855.94;4969912;28;1376;-56
2022/01/28 11:18:23;;;;;;;;;;;;;;;19.45;55.77;100845.91;4969505;28;1432;-59
2022/01/28 11:20:51;;;;;;;;;;;;;;;19.42;56.86;100846.19;4969716;28;1384;-59
2022/01/28 11:23:24;;;;;;;;;;;;;;;19.41;56.19;100857.03;4967667;28;1436;-56
2022/01/28 11:25:57;;;;;;;;;;;;;;;19.36;55.89;100845.84;4969597;28;1531;-59
2022/01/28 11:28:38;;;;;;;;;;;;;;;19.36;56.20;100854.78;4970623;28;1496;-56
2022/01/28 11:31:04;;;;;;;;;;;;;;;19.30;55.75;100855.31;4963301;28;1171;-57
2022/01/28 11:33:43;;;;;;;;;;;;;;;19.30;56.35;100833.88;4970514;28;1963;-59
2022/01/28 11:36:10;;;;;;;;;;;;;;;19.30;55.71;100855.31;4971653;28;1512;-58
2022/01/28 11:38:40;;;;;;;;;;;;;;;19.26;56.66;100851.22;4972663;28;1503;-57
2022/01/28 11:41:07;;;;;;;;;;;;;;;19.27;56.27;100850.22;4966048;28;1493;-59
2022/01/28 11:43:35;;;;;;;;;;;;;;;19.30;56.69;100855.31;4972615;28;1440;-57
2022/01/28 11:46:05;;;;;;;;;;;;;;;19.18;56.05;100837.59;4972764;28;1512;-59
2022/01/28 11:48:47;;;;;;;;;;;;;;;19.18;55.88;100845.66;4975415;28;1519;-56
2022/01/28 11:51:16;;;;;;;;;;;;;;;19.34;55.60;100840.66;4975532;28;2026;-58
2022/01/28 11:53:53;;;;;;;;;;;;;;;19.59;54.06;100841.97;4967393;28;1355;-59
2022/01/28 11:56:21;;;;;;;;;;;;;;;19.84;54.57;100855.91;4967995;28;1448;-57
2022/01/28 11:58:54;;;;;;;;;;;;;;;20.17;53.84;100849.28;4974966;28;1496;-57
2022/01/28 12:01:24;;;;;;;;;;;;;;;20.29;52.55;100841.09;4975725;28;1534;-57
2022/01/28 12:03:51;;;;;;;;;;;;;;;20.27;52.88;100836.72;4977252;28;1571;-56
2022/01/28 12:06:19;;;;;;;;;;;;;;;20.22;52.69;100830.09;4967542;28;1442;-56
2022/01/28 12:08:46;;;;;;;;;;;;;;;20.14;53.73;100835.31;4969271;28;1592;-60
2022/01/28 12:11:14;;;;;;;;;;;;;;;20.10;53.88;100837.44;4975140;28;1519;-56
2022/01/28 12:13:53;;;;;;;;;;;;;;;20.01;56.37;100830.22;4970199;28;1906;-60
2022/01/28 12:16:27;;;;;;;;;;;;;;;20.01;55.05;100823.00;4977760;28;1718;-60
2022/01/28 12:18:54;;;;;;;;;;;;;;;20.05;55.91;100835.19;4967498;28;1547;-56
2022/01/28 12:21:23;;;;;;;;;;;;;;;20.04;54.82;100827.25;4971413;28;1282;-59
2022/01/28 12:23:50;;;;;;;;;;;;;;;20.00;55.97;100820.47;4967248;28;1459;-65
2022/01/28 12:26:19;;;;;;;;;;;;;;;19.93;55.17;100819.34;4969159;28;1518;-60
2022/01/28 12:28:55;;;;;;;;;;;;;;;19.93;55.46;100827.38;4970192;28;1409;-59
2022/01/28 12:31:23;;;;;;;;;;;;;;;19.97;55.66;100826.13;4969395;28;1030;-57
2022/01/28 12:33:51;;;;;;;;;;;;;;;20.05;55.92;100812.84;4969279;28;1902;-56
2022/01/28 12:36:21;;;;;;;;;;;;;;;20.02;55.67;100813.97;4974280;28;1382;-59
2022/01/28 12:41:43;;;;;;;;;;;;;;;20.04;55.30;100819.22;4966018;28;1348;-58
2022/01/28 12:44:10;;;;;;;;;;;;;;;19.95;56.41;100822.72;4967974;28;1225;-55
2022/01/28 12:46:37;;;;;;;;;;;;;;;19.97;56.27;100824.28;4973397;28;1424;-56
2022/01/28 12:49:04;;;;;;;;;;;;;;;20.01;56.08;100824.84;4971250;28;1708;-59
2022/01/28 12:51:37;;;;;;;;;;;;;;;20.00;55.40;100824.00;4968458;28;1464;-55
2022/01/28 12:54:05;;;;;;;;;;;;;;;20.26;55.58;100845.75;4971234;28;1477;-58
2022/01/28 12:56:33;;;;;;;;;;;;;;;19.97;55.26;100850.28;4971165;28;1632;-57
2022/01/28 12:59:00;;;;;;;;;;;;;;;19.91;54.94;100849.00;4971731;28;1366;-58
2022/01/28 13:01:27;;;;;;;;;;;;;;;20.05;56.34;100850.41;4975612;28;1349;-57
2022/01/28 13:04:01;;;;;;;;;;;;;;;20.00;55.75;100852.69;4971113;28;1727;-57
2022/01/28 13:06:41;;;;;;;;;;;;;;;19.99;55.97;100861.72;4970284;28;1837;-58
2022/01/28 13:09:14;;;;;;;;;;;;;;;19.94;57.04;100859.47;4970935;28;1448;-60
2022/01/28 13:11:42;;;;;;;;;;;;;;;19.91;55.73;100859.72;4966556;28;1910;-58
2022/01/28 13:14:09;;;;;;;;;;;;;;;19.96;55.56;100862.00;4967982;28;1349;-56
2022/01/28 13:16:36;;;;;;;;;;;;;;;19.96;56.87;100872.75;4971653;28;1321;-59
2022/01/28 13:19:03;;;;;;;;;;;;;;;19.90;56.81;100879.50;4970078;28;1492;-65
2022/01/28 13:21:31;;;;;;;;;;;;;;;19.90;55.96;100878.69;4970191;28;1586;-66
2022/01/28 13:24:18;;;;;;;;;;;;;;;19.92;57.18;100879.38;4966341;28;1584;-63
2022/01/28 13:26:56;;;;;;;;;;;;;;;19.94;56.83;100880.09;4969869;28;1368;-60
2022/01/28 13:29:31;;;;;;;;;;;;;;;19.97;56.43;100871.75;4974529;28;1627;-68
2022/01/28 13:31:58;;;;;;;;;;;;;;;19.99;55.96;100875.13;4975740;28;1911;-65
2022/01/28 13:34:24;;;;;;;;;;;;;;;20.01;56.82;100874.00;4974986;28;1544;-59
2022/01/28 13:36:52;;;;;;;;;;;;;;;20.13;56.06;100866.66;4969650;28;1711;-68
2022/01/28 13:39:20;;;;;;;;;;;;;;;20.19;57.07;100863.44;4967979;28;1763;-64
2022/01/28 13:41:51;;;;;;;;;;;;;;;20.05;58.04;100872.75;4969318;28;1449;-64
2022/01/28 13:44:26;;;;;;;;;;;;;;;19.96;57.80;100867.38;4970872;28;1210;-62
2022/01/28 13:47:00;;;;;;;;;;;;;;;19.92;58.17;100880.22;4974056;28;1329;-63